createdAt,value
2022-07-29T00:01:54.634Z,41.64
2022-07-29T00:04:22.242Z,41.84
2022-07-29T00:06:49.671Z,41.75
2022-07-29T00:09:16.788Z,42.34
2022-07-29T00:11:44.343Z,41.93
2022-07-29T00:14:11.740Z,42.05
2022-07-29T00:16:39.184Z,41.81
2022-07-29T00:19:07.847Z,42.13
2022-07-29T00:21:35.285Z,42.12
2022-07-29T00:24:02.609Z,42.50
2022-07-29T00:26:32.615Z,42.14
2022-07-29T00:31:52.616Z,42.18
2022-07-29T00:34:38.638Z,41.97
2022-07-29T00:37:05.973Z,42.60
2022-07-29T00:39:35.040Z,42.64
2022-07-29T00:42:05.605Z,42.73
2022-07-29T00:44:37.831Z,42.64
2022-07-29T00:47:05.094Z,42.71
2022-07-29T00:49:32.272Z,42.80
2022-07-29T00:52:01.504Z,42.48
2022-07-29T00:54:30.002Z,43.29
2022-07-29T00:57:00.134Z,43.00
2022-07-29T00:59:35.205Z,42.85
2022-07-29T01:02:04.397Z,42.98
2022-07-29T01:04:33.103Z,43.41
2022-07-29T01:07:03.158Z,43.48
2022-07-29T01:09:46.294Z,43.70
2022-07-29T01:12:18.466Z,43.12
2022-07-29T01:14:47.188Z,43.07
2022-07-29T01:17:28.382Z,43.42
2022-07-29T01:19:58.316Z,43.11
2022-07-29T01:22:52.275Z,43.54
2022-07-29T01:25:40.308Z,43.27
2022-07-29T01:28:32.152Z,43.17
2022-07-29T01:31:02.025Z,43.74
2022-07-29T01:33:50.893Z,43.55
2022-07-29T01:36:51.846Z,43.38
2022-07-29T01:39:34.278Z,43.58
2022-07-29T01:42:37.092Z,43.28
2022-07-29T01:45:22.981Z,43.75
2022-07-29T01:48:31.329Z,44.11
2022-07-29T01:51:07.200Z,44.12
2022-07-29T01:53:47.559Z,44.15
2022-07-29T01:56:18.374Z,44.26
2022-07-29T01:58:48.030Z,43.92
2022-07-29T02:01:17.289Z,44.43
2022-07-29T02:03:46.721Z,44.52
2022-07-29T02:06:17.989Z,44.28
2022-07-29T02:11:13.384Z,44.06
2022-07-29T02:13:42.204Z,44.59
2022-07-29T02:16:10.773Z,44.45
2022-07-29T02:18:40.858Z,44.62
2022-07-29T02:21:14.848Z,44.46
2022-07-29T02:23:50.443Z,45.16
2022-07-29T02:26:21.358Z,44.91
2022-07-29T02:28:51.537Z,45.43
2022-07-29T02:31:26.045Z,45.76
2022-07-29T02:33:54.902Z,45.91
2022-07-29T02:36:24.744Z,45.92
2022-07-29T02:38:52.551Z,46.25
2022-07-29T02:41:37.244Z,46.01
2022-07-29T02:44:11.570Z,46.23
2022-07-29T02:46:53.417Z,46.31
2022-07-29T02:49:47.912Z,46.55
2022-07-29T02:52:31.718Z,46.69
2022-07-29T02:55:09.851Z,46.25
2022-07-29T02:57:54.563Z,46.33
2022-07-29T03:00:28.738Z,46.26
2022-07-29T03:03:00.874Z,46.76
2022-07-29T03:05:28.949Z,46.33
2022-07-29T03:08:07.234Z,46.49
2022-07-29T03:10:35.332Z,46.35
2022-07-29T03:13:02.992Z,46.92
2022-07-29T03:15:31.032Z,46.83
2022-07-29T03:17:59.721Z,46.63
2022-07-29T03:20:27.466Z,46.79
2022-07-29T03:22:54.782Z,46.79
2022-07-29T03:25:22.756Z,46.91
2022-07-29T03:27:50.169Z,46.82
2022-07-29T03:30:21.982Z,46.53
2022-07-29T03:32:54.166Z,46.93
2022-07-29T03:35:23.793Z,46.51
2022-07-29T03:37:50.957Z,46.76
2022-07-29T03:40:36.328Z,46.70
2022-07-29T03:43:04.756Z,46.93
2022-07-29T03:45:33.159Z,47.15
2022-07-29T03:48:09.805Z,46.95
2022-07-29T03:50:37.653Z,46.95
2022-07-29T03:53:05.165Z,46.79
2022-07-29T03:55:41.345Z,46.93
2022-07-29T03:58:09.379Z,47.28
2022-07-29T04:00:38.753Z,47.07
2022-07-29T04:03:10.575Z,47.17
2022-07-29T04:05:39.228Z,47.46
2022-07-29T04:08:07.004Z,47.20
2022-07-29T04:10:34.359Z,47.18
2022-07-29T04:13:03.385Z,47.07
2022-07-29T04:15:30.888Z,46.90
2022-07-29T04:18:00.253Z,47.40
2022-07-29T04:20:27.762Z,47.35
2022-07-29T04:22:55.229Z,47.63
2022-07-29T04:25:22.270Z,47.20
2022-07-29T04:28:04.154Z,47.75
2022-07-29T04:30:32.864Z,47.76
2022-07-29T04:33:01.851Z,47.91
2022-07-29T04:35:37.992Z,47.53
2022-07-29T04:38:07.431Z,47.41
2022-07-29T04:40:42.547Z,47.48
2022-07-29T04:43:10.265Z,47.90
2022-07-29T04:45:39.754Z,47.31
2022-07-29T04:48:07.134Z,47.41
2022-07-29T04:50:34.446Z,47.75
2022-07-29T04:53:01.821Z,47.42
2022-07-29T04:55:29.265Z,47.14
2022-07-29T04:57:56.628Z,47.09
2022-07-29T05:00:28.057Z,47.05
2022-07-29T05:03:01.125Z,46.90
2022-07-29T05:05:28.341Z,47.05
2022-07-29T05:07:56.178Z,47.13
2022-07-29T05:10:23.934Z,47.03
2022-07-29T05:12:51.332Z,46.84
2022-07-29T05:15:18.825Z,46.94
2022-07-29T05:17:46.386Z,46.88
2022-07-29T05:20:13.569Z,46.93
2022-07-29T05:22:40.584Z,46.66
2022-07-29T05:25:10.082Z,46.76
2022-07-29T05:27:38.053Z,46.53
2022-07-29T05:30:06.168Z,46.78
2022-07-29T05:32:33.288Z,46.30
2022-07-29T05:35:00.436Z,46.10
2022-07-29T05:37:27.694Z,46.35
2022-07-29T05:39:57.418Z,46.29
2022-07-29T05:42:27.453Z,46.41
2022-07-29T05:44:54.703Z,46.10
2022-07-29T05:47:22.178Z,46.09
2022-07-29T05:49:50.069Z,46.12
2022-07-29T05:52:17.746Z,45.89
2022-07-29T05:54:45.132Z,45.72
2022-07-29T05:57:25.028Z,45.82
2022-07-29T05:59:52.945Z,45.36
2022-07-29T06:02:20.629Z,45.51
2022-07-29T06:04:47.843Z,45.17
2022-07-29T06:07:14.961Z,45.65
2022-07-29T06:09:42.242Z,45.33
2022-07-29T06:12:10.372Z,45.35
2022-07-29T06:14:38.874Z,45.26
2022-07-29T06:17:06.795Z,45.67
2022-07-29T06:19:37.124Z,45.45
2022-07-29T06:22:04.854Z,45.29
2022-07-29T06:24:31.977Z,45.53
2022-07-29T06:26:59.514Z,45.32
2022-07-29T06:29:26.674Z,45.20
2022-07-29T06:31:53.732Z,45.23
2022-07-29T06:34:21.063Z,45.24
2022-07-29T06:36:48.465Z,44.71
2022-07-29T06:39:17.078Z,44.90
2022-07-29T06:41:51.544Z,44.53
2022-07-29T06:44:20.158Z,44.80
2022-07-29T06:46:50.151Z,44.62
2022-07-29T06:49:17.567Z,44.44
2022-07-29T06:51:44.581Z,44.31
2022-07-29T06:54:11.806Z,44.34
2022-07-29T06:56:42.065Z,43.87
2022-07-29T06:59:11.278Z,44.12
2022-07-29T07:01:41.485Z,44.20
2022-07-29T07:04:09.756Z,43.98
2022-07-29T07:06:37.754Z,44.34
2022-07-29T07:09:05.609Z,44.04
2022-07-29T07:11:33.014Z,44.15
2022-07-29T07:14:14.423Z,44.27
2022-07-29T07:16:41.536Z,44.44
2022-07-29T07:19:08.786Z,44.22
2022-07-29T07:21:36.366Z,43.95
2022-07-29T07:24:03.892Z,44.11
2022-07-29T07:26:31.209Z,44.64
2022-07-29T07:29:01.262Z,44.33
2022-07-29T07:31:28.400Z,44.32
2022-07-29T07:33:55.893Z,44.39
2022-07-29T07:36:24.189Z,44.29
2022-07-29T07:38:51.502Z,44.45
2022-07-29T07:41:18.902Z,44.35
2022-07-29T07:43:46.092Z,44.38
2022-07-29T07:46:13.771Z,44.36
2022-07-29T07:48:41.158Z,44.46
2022-07-29T07:51:08.559Z,44.01
2022-07-29T07:53:36.098Z,44.40
2022-07-29T07:56:12.509Z,43.99
2022-07-29T07:58:40.243Z,43.99
2022-07-29T08:01:07.792Z,44.21
2022-07-29T08:03:35.503Z,44.03
2022-07-29T08:06:04.279Z,44.38
2022-07-29T08:08:31.550Z,44.20
2022-07-29T08:11:02.248Z,44.05
2022-07-29T08:13:33.072Z,44.03
2022-07-29T08:16:12.565Z,44.09
2022-07-29T08:18:42.141Z,44.02
2022-07-29T08:21:09.574Z,44.18
2022-07-29T08:23:46.880Z,43.86
2022-07-29T08:26:15.292Z,43.71
2022-07-29T08:28:51.187Z,43.60
2022-07-29T08:31:19.209Z,44.03
2022-07-29T08:33:46.841Z,43.81
2022-07-29T08:36:14.476Z,43.55
2022-07-29T08:38:41.721Z,43.85
2022-07-29T08:41:08.788Z,43.73
2022-07-29T08:43:38.653Z,43.88
2022-07-29T08:46:05.744Z,43.61
2022-07-29T08:48:33.628Z,43.75
2022-07-29T08:51:01.589Z,43.65
2022-07-29T08:53:30.491Z,43.58
2022-07-29T08:55:59.010Z,43.66
2022-07-29T08:58:28.041Z,43.62
2022-07-29T09:00:58.228Z,43.37
2022-07-29T09:03:31.335Z,43.68
2022-07-29T09:06:00.515Z,43.74
2022-07-29T09:08:28.536Z,43.75
2022-07-29T09:10:59.395Z,43.66
2022-07-29T09:13:27.228Z,43.81
2022-07-29T09:15:54.923Z,44.26
2022-07-29T09:18:37.405Z,43.54
2022-07-29T09:21:25.893Z,43.32
2022-07-29T09:24:11.230Z,43.47
2022-07-29T09:26:46.391Z,43.35
2022-07-29T09:29:17.388Z,43.61
2022-07-29T09:31:49.017Z,43.34
2022-07-29T09:34:22.762Z,43.51
2022-07-29T09:36:51.829Z,43.27
2022-07-29T09:39:36.918Z,43.13
2022-07-29T09:42:07.001Z,43.39
2022-07-29T09:44:47.635Z,43.15
2022-07-29T09:47:15.338Z,42.37
2022-07-29T09:50:01.401Z,42.88
2022-07-29T09:52:30.663Z,42.38
2022-07-29T09:55:09.134Z,42.60
2022-07-29T09:57:37.365Z,42.76
2022-07-29T10:00:09.060Z,42.54
2022-07-29T10:02:45.017Z,42.38
2022-07-29T10:05:36.056Z,41.99
2022-07-29T10:08:04.787Z,41.34
2022-07-29T10:10:35.340Z,41.96
2022-07-29T10:13:09.933Z,41.69
2022-07-29T10:15:46.332Z,41.83
2022-07-29T10:18:15.702Z,41.83
2022-07-29T10:20:42.874Z,41.29
2022-07-29T10:23:10.639Z,41.21
2022-07-29T10:25:38.027Z,41.15
2022-07-29T10:28:07.193Z,40.53
2022-07-29T10:30:34.976Z,40.41
2022-07-29T10:33:38.767Z,40.38
2022-07-29T10:36:20.333Z,39.94
2022-07-29T10:39:41.749Z,40.09
2022-07-29T10:42:33.333Z,40.29
2022-07-29T10:45:04.326Z,40.37
2022-07-29T10:47:32.407Z,39.79
2022-07-29T10:50:07.463Z,39.82
2022-07-29T10:52:55.305Z,39.98
2022-07-29T10:55:43.417Z,39.15
2022-07-29T10:58:19.820Z,39.42
2022-07-29T11:00:50.207Z,39.17
2022-07-29T11:03:52.335Z,39.65
2022-07-29T11:06:26.325Z,39.04
2022-07-29T11:09:34.789Z,39.49
2022-07-29T11:12:25.889Z,39.37
2022-07-29T11:15:02.618Z,38.90
2022-07-29T11:17:37.577Z,39.35
2022-07-29T11:20:33.896Z,38.88
2022-07-29T11:23:02.043Z,38.60
2022-07-29T11:25:50.711Z,38.21
2022-07-29T11:28:23.144Z,37.71
2022-07-29T11:30:54.859Z,37.78
2022-07-29T11:33:54.458Z,37.51
2022-07-29T11:36:28.183Z,37.71
2022-07-29T11:39:26.868Z,37.54
2022-07-29T11:42:28.523Z,37.38
2022-07-29T11:48:03.648Z,37.17
2022-07-29T11:50:36.932Z,36.84
2022-07-29T11:53:13.257Z,36.48
2022-07-29T11:55:50.772Z,36.59
2022-07-29T11:58:26.249Z,35.83
2022-07-29T12:00:55.496Z,36.13
2022-07-29T12:03:33.438Z,35.95
2022-07-29T12:06:14.019Z,35.59
2022-07-29T12:07:02.022Z,37.90
2022-07-29T12:08:44.322Z,35.33
2022-07-29T12:11:23.419Z,35.45
2022-07-29T12:13:54.713Z,35.40
2022-07-29T12:16:25.530Z,35.59
2022-07-29T12:18:58.762Z,35.51
2022-07-29T12:21:26.772Z,35.94
2022-07-29T12:24:04.829Z,35.85
2022-07-29T12:26:36.360Z,35.54
2022-07-29T12:29:04.505Z,35.63
2022-07-29T12:31:43.379Z,35.93
2022-07-29T12:34:15.039Z,36.39
2022-07-29T12:36:44.047Z,36.69
2022-07-29T12:39:13.384Z,36.47
2022-07-29T12:41:40.926Z,36.83
2022-07-29T12:44:08.103Z,36.46
2022-07-29T12:46:35.290Z,36.86
2022-07-29T12:49:04.532Z,36.76
2022-07-29T12:51:37.738Z,36.65
2022-07-29T12:54:06.600Z,36.73
2022-07-29T12:56:43.297Z,36.31
2022-07-29T12:59:20.472Z,36.33
2022-07-29T13:01:50.848Z,36.25
2022-07-29T13:04:37.490Z,36.52
2022-07-29T13:07:08.209Z,35.79
2022-07-29T13:09:48.834Z,35.95
2022-07-29T13:12:16.316Z,35.88
2022-07-29T13:14:48.933Z,35.00
2022-07-29T13:17:23.833Z,35.46
2022-07-29T13:20:10.257Z,35.38
2022-07-29T13:22:37.706Z,35.22
2022-07-29T13:25:07.715Z,35.30
2022-07-29T13:27:38.304Z,35.15
2022-07-29T13:30:09.387Z,35.05
2022-07-29T13:32:37.649Z,34.76
2022-07-29T13:35:08.958Z,34.50
2022-07-29T13:37:39.609Z,34.09
2022-07-29T13:40:10.323Z,33.35
2022-07-29T13:42:37.768Z,33.13
2022-07-29T13:45:07.550Z,32.81
2022-07-29T13:47:34.815Z,32.88
2022-07-29T13:50:02.983Z,32.52
2022-07-29T13:52:30.417Z,32.20
2022-07-29T13:54:57.594Z,32.78
2022-07-29T13:57:25.097Z,32.03
2022-07-29T13:59:54.382Z,31.59
2022-07-29T14:02:25.648Z,31.47
2022-07-29T14:04:56.607Z,30.88
2022-07-29T14:07:24.346Z,31.00
2022-07-29T14:09:52.137Z,31.15
2022-07-29T14:12:20.025Z,31.04
2022-07-29T14:14:47.522Z,30.98
2022-07-29T14:17:15.948Z,30.84
2022-07-29T14:19:43.826Z,29.92
2022-07-29T14:22:11.045Z,30.49
2022-07-29T14:24:39.177Z,30.61
2022-07-29T14:27:08.859Z,30.60
2022-07-29T14:29:39.055Z,30.51
2022-07-29T14:32:15.818Z,30.13
2022-07-29T14:34:43.521Z,30.41
2022-07-29T14:37:10.808Z,30.65
2022-07-29T14:39:43.579Z,30.78
2022-07-29T14:42:12.714Z,30.85
2022-07-29T14:44:42.571Z,31.16
2022-07-29T14:47:10.381Z,31.40
2022-07-29T14:49:38.242Z,31.04
2022-07-29T14:52:05.872Z,29.92
2022-07-29T14:54:33.477Z,29.49
2022-07-29T14:57:01.282Z,28.77
2022-07-29T14:59:28.694Z,27.93
2022-07-29T15:01:56.381Z,26.63
2022-07-29T15:04:24.052Z,26.34
2022-07-29T15:06:51.521Z,25.89
2022-07-29T15:09:18.999Z,25.30
2022-07-29T15:11:46.134Z,25.01
2022-07-29T15:14:13.169Z,24.50
2022-07-29T15:16:41.967Z,24.09
2022-07-29T15:19:11.565Z,23.49
2022-07-29T15:21:41.611Z,23.36
2022-07-29T15:24:17.474Z,22.92
2022-07-29T15:26:45.026Z,22.14
2022-07-29T15:29:12.291Z,21.49
2022-07-29T15:31:39.386Z,21.68
2022-07-29T15:34:07.735Z,21.88
2022-07-29T15:36:51.357Z,21.05
2022-07-29T15:39:21.985Z,21.15
2022-07-29T15:41:49.696Z,20.54
2022-07-29T15:44:16.832Z,21.03
2022-07-29T15:47:02.518Z,20.13
2022-07-29T15:49:47.887Z,20.01
2022-07-29T15:52:26.052Z,19.87
2022-07-29T15:54:55.620Z,19.66
2022-07-29T15:57:23.671Z,20.06
2022-07-29T15:59:51.317Z,20.03
2022-07-29T16:02:18.640Z,19.65
2022-07-29T16:04:45.842Z,19.86
2022-07-29T16:07:14.176Z,19.65
2022-07-29T16:09:42.801Z,19.92
2022-07-29T16:12:15.398Z,19.31
2022-07-29T16:14:44.363Z,19.21
2022-07-29T16:17:14.895Z,19.58
2022-07-29T16:19:44.092Z,19.79
2022-07-29T16:22:11.998Z,19.26
2022-07-29T16:24:39.527Z,19.92
2022-07-29T16:27:07.051Z,19.88
2022-07-29T16:29:34.303Z,19.77
2022-07-29T16:32:01.901Z,19.57
2022-07-29T16:34:29.769Z,20.28
2022-07-29T16:36:57.088Z,20.02
2022-07-29T16:39:24.265Z,20.12
2022-07-29T16:41:51.491Z,20.33
2022-07-29T16:44:18.634Z,20.63
2022-07-29T16:46:45.872Z,20.99
2022-07-29T16:49:19.090Z,20.97
2022-07-29T16:51:47.957Z,21.07
2022-07-29T16:54:15.391Z,21.35
2022-07-29T16:56:42.524Z,21.25
2022-07-29T16:59:09.627Z,21.56
2022-07-29T17:01:37.299Z,21.95
2022-07-29T17:04:07.185Z,22.12
2022-07-29T17:06:40.487Z,21.89
2022-07-29T17:09:09.949Z,22.14
2022-07-29T17:11:51.684Z,22.26
2022-07-29T17:14:26.898Z,22.65
2022-07-29T17:17:01.030Z,23.11
2022-07-29T17:19:35.471Z,24.14
2022-07-29T17:22:11.615Z,24.61
2022-07-29T17:24:41.090Z,24.89
2022-07-29T17:27:09.481Z,24.68
2022-07-29T17:29:37.019Z,25.27
2022-07-29T17:32:07.772Z,25.06
2022-07-29T17:34:41.112Z,25.39
2022-07-29T17:37:12.190Z,25.70
2022-07-29T17:39:41.726Z,25.94
2022-07-29T17:42:11.128Z,25.93
2022-07-29T17:44:38.817Z,26.37
2022-07-29T17:47:07.925Z,26.13
2022-07-29T17:49:44.293Z,26.77
2022-07-29T17:52:11.431Z,26.79
2022-07-29T17:54:38.543Z,26.98
2022-07-29T17:57:05.617Z,27.38
2022-07-29T17:59:32.859Z,28.03
2022-07-29T18:02:00.225Z,27.95
2022-07-29T18:04:28.914Z,28.48
2022-07-29T18:06:56.511Z,29.16
2022-07-29T18:09:23.909Z,29.15
2022-07-29T18:11:51.977Z,29.41
2022-07-29T18:14:19.200Z,30.22
2022-07-29T18:16:47.586Z,30.15
2022-07-29T18:19:14.778Z,30.85
2022-07-29T18:21:53.874Z,31.27
2022-07-29T18:24:27.459Z,31.55
2022-07-29T18:26:54.824Z,31.46
2022-07-29T18:29:22.214Z,32.00
2022-07-29T18:31:49.545Z,32.22
2022-07-29T18:34:17.244Z,32.64
2022-07-29T18:36:45.920Z,33.02
2022-07-29T18:39:20.998Z,32.82
2022-07-29T18:41:51.257Z,33.18
2022-07-29T18:44:21.691Z,33.98
2022-07-29T18:46:50.167Z,33.74
2022-07-29T18:49:17.807Z,33.78
2022-07-29T18:51:44.907Z,34.64
2022-07-29T18:54:13.428Z,34.70
2022-07-29T18:56:41.599Z,34.98
2022-07-29T18:59:08.833Z,34.75
2022-07-29T19:01:37.087Z,35.09
2022-07-29T19:04:05.493Z,35.23
2022-07-29T19:06:32.853Z,35.38
2022-07-29T19:09:00.521Z,35.65
2022-07-29T19:11:27.712Z,35.86
2022-07-29T19:13:55.155Z,36.45
2022-07-29T19:16:22.522Z,36.62
2022-07-29T19:18:49.638Z,36.50
2022-07-29T19:21:17.390Z,36.97
2022-07-29T19:24:01.845Z,37.19
2022-07-29T19:26:33.420Z,37.72
2022-07-29T19:29:00.488Z,37.98
2022-07-29T19:31:28.133Z,37.86
2022-07-29T19:33:55.422Z,38.51
2022-07-29T19:36:22.892Z,38.55
2022-07-29T19:38:50.027Z,38.84
2022-07-29T19:41:17.290Z,39.09
2022-07-29T19:43:51.993Z,39.37
2022-07-29T19:46:21.645Z,39.63
2022-07-29T19:48:49.389Z,39.97
2022-07-29T19:51:17.285Z,39.81
2022-07-29T19:53:44.454Z,40.12
2022-07-29T19:56:11.802Z,40.46
2022-07-29T19:58:40.703Z,40.38
2022-07-29T20:01:10.617Z,40.29
2022-07-29T20:03:39.998Z,40.38
2022-07-29T20:06:08.093Z,40.41
2022-07-29T20:08:35.490Z,40.92
2022-07-29T20:11:03.446Z,41.00
2022-07-29T20:13:32.984Z,41.05
2022-07-29T20:16:01.212Z,40.97
2022-07-29T20:18:28.484Z,41.33
2022-07-29T20:20:57.560Z,41.13
2022-07-29T20:23:24.986Z,41.17
2022-07-29T20:25:52.633Z,41.56
2022-07-29T20:28:28.526Z,41.77
2022-07-29T20:30:55.784Z,41.70
2022-07-29T20:33:22.929Z,42.08
2022-07-29T20:35:50.230Z,41.75
2022-07-29T20:38:18.473Z,42.24
2022-07-29T20:40:46.318Z,42.08
2022-07-29T20:43:13.623Z,42.37
2022-07-29T20:45:40.990Z,42.61
2022-07-29T20:48:08.575Z,42.54
2022-07-29T20:50:35.894Z,42.80
2022-07-29T20:53:03.415Z,42.91
2022-07-29T20:55:31.943Z,42.68
2022-07-29T20:57:59.475Z,42.83
2022-07-29T21:00:26.796Z,42.84
2022-07-29T21:02:54.302Z,43.23
2022-07-29T21:05:21.365Z,43.05
2022-07-29T21:07:48.539Z,43.59
2022-07-29T21:10:18.169Z,44.18
2022-07-29T21:12:49.270Z,46.99
2022-07-29T21:15:16.876Z,46.79
2022-07-29T21:17:47.234Z,46.58
2022-07-29T21:20:19.453Z,46.84
2022-07-29T21:22:46.789Z,47.71
2022-07-29T21:25:13.985Z,47.14
2022-07-29T21:27:59.921Z,46.87
2022-07-29T21:30:28.084Z,46.31
2022-07-29T21:32:55.543Z,46.54
2022-07-29T21:35:52.163Z,46.62
2022-07-29T21:38:09.957Z,46.38
2022-07-29T21:40:37.335Z,46.37
2022-07-29T21:43:05.010Z,46.46
2022-07-29T21:45:32.329Z,46.21
2022-07-29T21:47:59.684Z,46.43
2022-07-29T21:50:27.028Z,46.52
2022-07-29T21:52:54.385Z,46.74
2022-07-29T21:55:23.010Z,46.84
2022-07-29T21:57:56.621Z,47.04
2022-07-29T22:00:25.570Z,47.32
2022-07-29T22:02:56.009Z,47.82
2022-07-29T22:05:24.052Z,47.74
2022-07-29T22:07:55.568Z,48.16
2022-07-29T22:10:26.957Z,48.50
2022-07-29T22:12:56.494Z,48.16
2022-07-29T22:15:24.513Z,48.27
2022-07-29T22:17:52.327Z,48.54
2022-07-29T22:20:20.265Z,49.06
2022-07-29T22:22:48.208Z,49.16
2022-07-29T22:25:16.898Z,49.34
2022-07-29T22:27:44.241Z,49.04
2022-07-29T22:30:12.114Z,49.19
2022-07-29T22:32:39.442Z,49.14
2022-07-29T22:35:07.200Z,49.18
2022-07-29T22:37:34.377Z,48.86
2022-07-29T22:40:02.177Z,48.72
2022-07-29T22:42:31.733Z,48.66
2022-07-29T22:44:58.672Z,48.54
2022-07-29T22:47:46.679Z,48.50
2022-07-29T22:50:13.033Z,48.80
2022-07-29T22:52:40.337Z,49.26
2022-07-29T22:55:07.783Z,49.99
2022-07-29T22:57:34.869Z,49.77
2022-07-29T23:00:02.631Z,51.95
2022-07-29T23:02:29.894Z,51.74
2022-07-29T23:04:57.213Z,52.92
2022-07-29T23:07:24.629Z,53.60
2022-07-29T23:09:51.957Z,54.67
2022-07-29T23:12:19.048Z,55.51
2022-07-29T23:14:46.298Z,55.39
2022-07-29T23:17:13.627Z,56.02
2022-07-29T23:19:41.120Z,57.80
2022-07-29T23:22:08.481Z,56.79
2022-07-29T23:24:35.421Z,56.50
2022-07-29T23:27:02.850Z,58.04
2022-07-29T23:29:32.803Z,57.80
2022-07-29T23:32:03.581Z,57.79
2022-07-29T23:34:30.676Z,58.50
2022-07-29T23:36:57.846Z,57.58
2022-07-29T23:39:24.886Z,58.39
2022-07-29T23:41:52.628Z,59.50
2022-07-29T23:44:19.930Z,59.20
2022-07-29T23:46:46.990Z,59.17
2022-07-29T23:49:14.497Z,59.65
2022-07-29T23:51:41.589Z,59.94
2022-07-29T23:54:08.689Z,60.21
2022-07-29T23:56:35.915Z,60.60
2022-07-29T23:59:05.720Z,60.39
